TitleAuthorLatest activityViews
ThreadJEAHIL27December 9, 2016 9:54:15 PM 40 0 0
ThreadONLY1CALYPSOKIDDecember 9, 2016 4:23:59 PM 280 0 0
ThreadRLR9X20December 9, 2016 3:23:59 PM 4961 1 14
Threadrjc1964December 9, 2016 3:00:45 PM 310 0 1
ThreadEWODRICHDecember 9, 2016 12:13:46 PM 1390 0 6
ThreadtempannoyedDecember 9, 2016 11:21:55 AM 330 0 2
ThreadearltashDecember 9, 2016 8:49:31 AM 890 0 3
Threadalbert79December 9, 2016 8:48:32 AM 800 0 2
ThreadGERBAG40December 8, 2016 5:27:05 PM 370 0 1
ThreadAZURES.SKYEDecember 8, 2016 4:56:29 PM 220 0 0
ThreadSANMANW6December 8, 2016 1:47:35 PM 700 0 4
ThreadFingerlakes48December 8, 2016 1:35:20 PM 1471 1 6
ThreadsoddemallDecember 8, 2016 11:12:10 AM 1170 0 6
ThreadDOUHOC13December 8, 2016 10:31:01 AM 650 0 1
ThreadMANIAC412007December 8, 2016 10:30:41 AM 3481 0 1
ThreadErin13December 8, 2016 10:02:16 AM 24520 1 13
ThreadJjefferiesDecember 8, 2016 10:00:43 AM 5570 0 6
ThreadIEATSQUABDecember 8, 2016 7:58:25 AM 630 0 2
ThreadlorabeleDecember 7, 2016 12:54:00 PM 690 0 1
ThreadBigham3t79December 7, 2016 11:55:11 AM 5752 0 7